Time;durP1;ratioP1;P1;durP2;ratioP2;P2;SDS_P1;SDS_P2;PMS_P1;PMS_P2;Temp;Humidity;BMP_temperature;BMP_pressure;BME280_temperature;BME280_humidity;BME280_pressure;Samples;Min_cycle;Max_cycle;Signal;HPM_P1;HPM_P2
2022/11/22 00:00:27;;;;;;;;;;;;;;;17.36;48.77;100220.48;102124;1325;62079;-83
2022/11/22 00:02:52;;;;;;;;;;;;;;;17.36;48.85;100224.89;102135;1325;62017;-83
2022/11/22 00:05:18;;;;;;;;;;;;;;;17.36;48.80;100225.27;102111;1329;62264;-83
2022/11/22 00:07:43;;;;;;;;;;;;;;;17.36;48.93;100228.83;102122;1317;62303;-83
2022/11/22 00:10:11;;;;;;;;;;;;;;;17.36;48.88;100235.40;102094;1325;62196;-83
2022/11/22 00:12:36;;;;;;;;;;;;;;;17.36;48.82;100235.44;102141;1325;59391;-84
2022/11/22 00:15:02;;;;;;;;;;;;;;;17.35;48.81;100228.52;102099;1325;60908;-85
2022/11/22 00:17:30;;;;;;;;;;;;;;;17.35;48.86;100221.22;102180;1323;62116;-85
2022/11/22 00:19:55;;;;;;;;;;;;;;;17.36;48.75;100221.19;102093;1332;62080;-85
2022/11/22 00:22:21;;;;;;;;;;;;;;;17.36;48.78;100228.69;102086;1325;62105;-85
2022/11/22 00:24:46;;;;;;;;;;;;;;;17.35;48.82;100233.89;102130;1325;62260;-85
2022/11/22 00:27:11;;;;;;;;;;;;;;;17.35;48.80;100242.25;101949;1326;62167;-85
2022/11/22 00:29:37;;;;;;;;;;;;;;;17.35;48.78;100253.81;101963;1325;62296;-83
2022/11/22 00:32:02;;;;;;;;;;;;;;;17.35;48.82;100255.24;101979;1328;59530;-84
2022/11/22 00:34:28;;;;;;;;;;;;;;;17.34;48.80;100255.27;101993;1332;61000;-84
2022/11/22 00:36:53;;;;;;;;;;;;;;;17.34;48.73;100250.64;102005;1333;62025;-83
2022/11/22 00:39:19;;;;;;;;;;;;;;;17.34;48.72;100248.33;101977;1328;62218;-83
2022/11/22 00:41:44;;;;;;;;;;;;;;;17.35;48.75;100251.36;101933;1328;62138;-83
2022/11/22 00:44:09;;;;;;;;;;;;;;;17.34;48.76;100247.78;101988;1328;62181;-84
2022/11/22 00:46:35;;;;;;;;;;;;;;;17.34;48.74;100248.17;101987;1326;62338;-83
2022/11/22 00:49:00;;;;;;;;;;;;;;;17.34;48.60;100248.52;101968;1332;62149;-83
2022/11/22 00:51:26;;;;;;;;;;;;;;;17.34;48.61;100253.34;102077;1325;62165;-83
2022/11/22 00:53:51;;;;;;;;;;;;;;;17.34;48.67;100251.36;101978;1328;62216;-83
2022/11/22 00:56:16;;;;;;;;;;;;;;;17.34;48.75;100251.91;102017;1328;62092;-83
2022/11/22 00:58:42;;;;;;;;;;;;;;;17.34;48.61;100255.13;101980;1326;61825;-84
2022/11/22 01:01:07;;;;;;;;;;;;;;;17.34;48.63;100257.98;101977;1328;62748;-84
2022/11/22 01:03:33;;;;;;;;;;;;;;;17.34;48.66;100262.23;101970;1328;62228;-83
2022/11/22 01:05:58;;;;;;;;;;;;;;;17.34;48.69;100262.25;101967;1328;62234;-83
2022/11/22 01:08:23;;;;;;;;;;;;;;;17.34;48.63;100270.40;102021;1325;62181;-83
2022/11/22 01:10:54;;;;;;;;;;;;;;;17.33;48.70;100270.25;101976;1325;62242;-84
2022/11/22 01:13:19;;;;;;;;;;;;;;;17.34;48.77;100273.80;101914;1329;62168;-84
2022/11/22 01:15:45;;;;;;;;;;;;;;;17.33;48.72;100275.61;101962;1329;62163;-84
2022/11/22 01:18:10;;;;;;;;;;;;;;;17.33;48.68;100277.73;101986;1325;62132;-83
2022/11/22 01:20:36;;;;;;;;;;;;;;;17.33;48.59;100278.25;101998;1328;62241;-84
2022/11/22 01:23:01;;;;;;;;;;;;;;;17.33;48.58;100273.50;101969;1333;62136;-84
2022/11/22 01:25:26;;;;;;;;;;;;;;;17.33;48.52;100270.98;102074;1325;62090;-83
2022/11/22 01:27:52;;;;;;;;;;;;;;;17.33;48.52;100268.14;101941;1332;62120;-83
2022/11/22 01:30:17;;;;;;;;;;;;;;;17.33;48.65;100267.29;102000;1326;62305;-84
2022/11/22 01:32:43;;;;;;;;;;;;;;;17.33;48.53;100269.92;102019;1328;62261;-85
2022/11/22 01:35:09;;;;;;;;;;;;;;;17.33;48.62;100273.70;101998;1329;63304;-84
2022/11/22 01:37:35;;;;;;;;;;;;;;;17.32;48.65;100279.23;101969;1325;62176;-85
2022/11/22 01:40:00;;;;;;;;;;;;;;;17.32;48.68;100277.10;102097;1325;59694;-85
2022/11/22 01:42:42;;;;;;;;;;;;;;;17.33;48.67;100280.63;102002;1328;62144;-85
2022/11/22 01:45:27;;;;;;;;;;;;;;;17.32;48.52;100277.98;101954;1325;61991;-84
2022/11/22 01:47:52;;;;;;;;;;;;;;;17.32;48.64;100278.88;102076;1329;62126;-84
2022/11/22 01:50:17;;;;;;;;;;;;;;;17.32;48.69;100281.02;101961;1325;62096;-84
2022/11/22 01:52:43;;;;;;;;;;;;;;;17.32;48.56;100290.64;101947;1328;62161;-84
2022/11/22 01:55:08;;;;;;;;;;;;;;;17.32;48.51;100291.51;101987;1326;62127;-84
2022/11/22 01:57:34;;;;;;;;;;;;;;;17.32;48.53;100290.48;102015;1319;62094;-84
2022/11/22 02:00:03;;;;;;;;;;;;;;;17.32;48.66;100295.61;102009;1328;62041;-84
2022/11/22 02:02:29;;;;;;;;;;;;;;;17.32;48.45;100293.13;102104;1325;72931;-84
2022/11/22 02:04:54;;;;;;;;;;;;;;;17.31;48.56;100293.34;102104;1325;62306;-84
2022/11/22 02:07:21;;;;;;;;;;;;;;;17.32;48.48;100286.02;101994;1328;62204;-83
2022/11/22 02:09:46;;;;;;;;;;;;;;;17.32;48.49;100281.75;102089;1332;62160;-84
2022/11/22 02:12:13;;;;;;;;;;;;;;;17.32;48.54;100279.29;101976;1332;62094;-84
2022/11/22 02:14:38;;;;;;;;;;;;;;;17.31;48.48;100275.56;102005;1329;62124;-84
2022/11/22 02:17:04;;;;;;;;;;;;;;;17.31;48.51;100279.86;102011;1328;62199;-83
2022/11/22 02:19:29;;;;;;;;;;;;;;;17.31;48.55;100284.29;102042;1327;62207;-83
2022/11/22 02:21:57;;;;;;;;;;;;;;;17.31;48.57;100286.60;102124;1325;62132;-83
2022/11/22 02:24:29;;;;;;;;;;;;;;;17.31;48.52;100283.92;102024;1328;73426;-83
2022/11/22 02:26:54;;;;;;;;;;;;;;;17.31;48.58;100286.77;102185;1325;74559;-83
2022/11/22 02:29:19;;;;;;;;;;;;;;;17.32;48.65;100291.91;102100;1325;62133;-83
2022/11/22 02:31:45;;;;;;;;;;;;;;;17.31;48.62;100295.70;102129;1325;62219;-83
2022/11/22 02:34:10;;;;;;;;;;;;;;;17.31;48.51;100294.05;102107;1324;62126;-84
2022/11/22 02:36:40;;;;;;;;;;;;;;;17.32;48.49;100293.15;102171;1325;62136;-84
2022/11/22 02:39:05;;;;;;;;;;;;;;;17.32;48.44;100295.09;102120;1319;76420;-84
2022/11/22 02:41:31;;;;;;;;;;;;;;;17.31;48.50;100293.58;102122;1329;59484;-84
2022/11/22 02:43:57;;;;;;;;;;;;;;;17.31;48.61;100291.77;102140;1325;62155;-84
2022/11/22 02:46:23;;;;;;;;;;;;;;;17.31;48.54;100290.19;102114;1325;62016;-83
2022/11/22 02:48:48;;;;;;;;;;;;;;;17.31;48.51;100288.23;102133;1325;62245;-85
2022/11/22 02:51:15;;;;;;;;;;;;;;;17.31;48.56;100283.80;102165;1315;62128;-84
2022/11/22 02:53:44;;;;;;;;;;;;;;;17.31;48.45;100285.55;102135;1325;62131;-84
2022/11/22 02:56:11;;;;;;;;;;;;;;;17.30;48.44;100287.19;102088;1325;62246;-84
2022/11/22 02:58:36;;;;;;;;;;;;;;;17.30;48.52;100296.44;102109;1325;73373;-83
2022/11/22 03:01:02;;;;;;;;;;;;;;;17.30;48.56;100301.08;102112;1325;62154;-83
2022/11/22 03:03:27;;;;;;;;;;;;;;;17.30;48.52;100307.47;102098;1323;62140;-84
2022/11/22 03:05:52;;;;;;;;;;;;;;;17.30;48.51;100309.09;102109;1326;62220;-84
2022/11/22 03:08:18;;;;;;;;;;;;;;;17.30;48.47;100303.95;102144;1325;62296;-84
2022/11/22 03:10:43;;;;;;;;;;;;;;;17.29;48.50;100301.83;102115;1325;62173;-83
2022/11/22 03:13:09;;;;;;;;;;;;;;;17.30;48.51;100301.83;102076;1324;62165;-83
2022/11/22 03:15:34;;;;;;;;;;;;;;;17.29;48.50;100304.15;102142;1325;62127;-84
2022/11/22 03:18:00;;;;;;;;;;;;;;;17.29;48.42;100311.24;102137;1325;62173;-84
2022/11/22 03:20:30;;;;;;;;;;;;;;;17.29;48.46;100308.63;102118;1331;61976;-83
2022/11/22 03:22:56;;;;;;;;;;;;;;;17.29;48.43;100311.10;102185;1322;72665;-84
2022/11/22 03:25:21;;;;;;;;;;;;;;;17.29;48.44;100303.47;102069;1333;62120;-84
2022/11/22 03:27:47;;;;;;;;;;;;;;;17.29;48.40;100302.06;101995;1326;62090;-84
2022/11/22 03:30:12;;;;;;;;;;;;;;;17.29;48.45;100302.41;101976;1332;62208;-84
2022/11/22 03:33:11;;;;;;;;;;;;;;;17.28;48.39;100300.32;102117;1325;62207;-84
2022/11/22 03:35:37;;;;;;;;;;;;;;;17.28;48.46;100302.97;101749;1340;72424;-83
2022/11/22 03:38:28;;;;;;;;;;;;;;;17.28;48.42;100306.00;101766;1338;62340;-84
2022/11/22 03:40:54;;;;;;;;;;;;;;;17.29;48.43;100305.98;101593;1337;62035;-84
2022/11/22 03:43:19;;;;;;;;;;;;;;;17.28;48.43;100306.38;101582;1344;62270;-84
2022/11/22 03:45:45;;;;;;;;;;;;;;;17.29;48.54;100304.38;101552;1337;62213;-84
2022/11/22 03:48:10;;;;;;;;;;;;;;;17.28;48.41;100305.85;101581;1330;63313;-84
2022/11/22 03:50:35;;;;;;;;;;;;;;;17.28;48.36;100303.19;101626;1337;62248;-83
2022/11/22 03:53:01;;;;;;;;;;;;;;;17.28;48.45;100300.51;101565;1337;62168;-84
2022/11/22 03:55:26;;;;;;;;;;;;;;;17.28;48.49;100307.09;101597;1341;62150;-84
2022/11/22 03:57:52;;;;;;;;;;;;;;;17.28;48.44;100310.81;101577;1344;62402;-83
2022/11/22 04:00:18;;;;;;;;;;;;;;;17.28;48.38;100310.81;101551;1337;62179;-83
2022/11/22 04:02:44;;;;;;;;;;;;;;;17.27;48.39;100304.80;101505;1339;62303;-85
2022/11/22 04:05:10;;;;;;;;;;;;;;;17.27;48.38;100305.70;101598;1340;62116;-83
2022/11/22 04:07:36;;;;;;;;;;;;;;;17.28;48.49;100305.30;101567;1337;62469;-83
2022/11/22 04:10:01;;;;;;;;;;;;;;;17.27;48.47;100308.90;101584;1338;63198;-83
2022/11/22 04:12:28;;;;;;;;;;;;;;;17.27;48.33;100311.75;101732;1341;62757;-84
2022/11/22 04:15:05;;;;;;;;;;;;;;;17.27;48.42;100311.41;101833;1331;62168;-83
2022/11/22 04:17:40;;;;;;;;;;;;;;;17.26;48.42;100313.73;101856;1333;62246;-84
2022/11/22 04:22:58;;;;;;;;;;;;;;;17.26;48.29;100314.63;101994;1328;75188;-84
2022/11/22 04:25:24;;;;;;;;;;;;;;;17.26;48.39;100315.16;102025;1325;62116;-84
2022/11/22 04:27:50;;;;;;;;;;;;;;;17.27;48.33;100318.34;102116;1323;62127;-84
2022/11/22 04:30:15;;;;;;;;;;;;;;;17.27;48.47;100322.79;102125;1326;63334;-84
2022/11/22 04:32:47;;;;;;;;;;;;;;;17.26;48.35;100324.95;102129;1326;62120;-84
2022/11/22 04:35:13;;;;;;;;;;;;;;;17.26;48.42;100324.79;102091;1332;62021;-84
2022/11/22 04:37:39;;;;;;;;;;;;;;;17.26;48.37;100325.84;102118;1325;61957;-85
2022/11/22 04:40:04;;;;;;;;;;;;;;;17.25;48.22;100327.33;102102;1322;62195;-83
2022/11/22 04:45:14;;;;;;;;;;;;;;;17.26;48.27;100327.83;102141;1325;61901;-83
2022/11/22 04:47:58;;;;;;;;;;;;;;;17.25;48.29;100336.55;102127;1325;62245;-84
2022/11/22 04:53:10;;;;;;;;;;;;;;;17.25;48.37;100358.45;102157;1326;76433;-83
2022/11/22 04:55:35;;;;;;;;;;;;;;;17.25;48.25;100362.21;102123;1332;62147;-83
2022/11/22 04:58:03;;;;;;;;;;;;;;;17.24;48.34;100367.04;102143;1326;62118;-84
2022/11/22 05:00:29;;;;;;;;;;;;;;;17.25;48.22;100374.46;102114;1326;62053;-84
2022/11/22 05:02:55;;;;;;;;;;;;;;;17.25;48.30;100383.00;102038;1325;75215;-84
2022/11/22 05:05:21;;;;;;;;;;;;;;;17.25;48.31;100388.01;102132;1325;62097;-84
2022/11/22 05:07:49;;;;;;;;;;;;;;;17.25;48.31;100387.63;102149;1325;62133;-84
2022/11/22 05:10:14;;;;;;;;;;;;;;;17.25;48.19;100388.34;102114;1329;62123;-85
2022/11/22 05:12:41;;;;;;;;;;;;;;;17.24;48.33;100385.38;102010;1325;62122;-85
2022/11/22 05:15:08;;;;;;;;;;;;;;;17.24;48.17;100389.30;102097;1326;62104;-85
2022/11/22 05:17:34;;;;;;;;;;;;;;;17.24;48.33;100391.60;102086;1324;62198;-84
2022/11/22 05:19:59;;;;;;;;;;;;;;;17.24;48.20;100397.50;102126;1325;62342;-83
2022/11/22 05:25:35;;;;;;;;;;;;;;;17.26;48.11;100406.45;101752;1323;62011;-84
2022/11/22 05:28:01;;;;;;;;;;;;;;;17.28;48.13;100409.36;101547;1315;62173;-83
2022/11/22 05:30:26;;;;;;;;;;;;;;;17.30;48.11;100407.98;101705;1321;62084;-83
2022/11/22 05:32:53;;;;;;;;;;;;;;;17.33;48.08;100412.08;101679;1330;62435;-82
2022/11/22 05:35:19;;;;;;;;;;;;;;;17.36;48.13;100412.77;101608;1323;62284;-83
2022/11/22 05:37:44;;;;;;;;;;;;;;;17.39;47.94;100413.27;101535;1333;62085;-83
2022/11/22 05:40:10;;;;;;;;;;;;;;;17.42;47.99;100416.64;101620;1323;62277;-83
2022/11/22 05:42:35;;;;;;;;;;;;;;;17.46;47.82;100420.19;101606;1329;62249;-84
2022/11/22 05:45:01;;;;;;;;;;;;;;;17.48;47.74;100421.30;101535;1323;62160;-84
2022/11/22 05:47:27;;;;;;;;;;;;;;;17.50;47.72;100420.61;101413;1322;62382;-83
2022/11/22 05:49:52;;;;;;;;;;;;;;;17.51;47.64;100421.42;101375;1322;62833;-82
2022/11/22 05:52:18;;;;;;;;;;;;;;;17.52;47.66;100429.89;100941;1323;706923;-83
2022/11/22 05:54:44;;;;;;;;;;;;;;;17.54;47.66;100436.95;101299;1323;62085;-85
2022/11/22 05:57:09;;;;;;;;;;;;;;;17.53;47.50;100444.29;101337;1323;62321;-85
2022/11/22 05:59:35;;;;;;;;;;;;;;;17.50;47.59;100445.69;101154;1323;62285;-85
2022/11/22 06:02:00;;;;;;;;;;;;;;;17.46;47.60;100447.02;101318;1317;62103;-84
2022/11/22 06:04:26;;;;;;;;;;;;;;;17.42;47.54;100450.48;101757;1316;62236;-83
2022/11/22 06:06:52;;;;;;;;;;;;;;;17.39;47.68;100454.94;101709;1309;71347;-83
2022/11/22 06:09:18;;;;;;;;;;;;;;;17.36;47.70;100463.84;101664;1312;62195;-84
2022/11/22 06:11:44;;;;;;;;;;;;;;;17.33;47.72;100465.94;101603;1318;62109;-82
2022/11/22 06:14:10;;;;;;;;;;;;;;;17.34;47.78;100471.27;101706;1310;62236;-84
2022/11/22 06:16:36;;;;;;;;;;;;;;;17.34;47.86;100475.88;101660;1317;62164;-82
2022/11/22 06:19:01;;;;;;;;;;;;;;;17.34;47.85;100478.69;101495;1317;62049;-83
2022/11/22 06:21:27;;;;;;;;;;;;;;;17.34;47.86;100478.33;101781;1309;62083;-83
2022/11/22 06:23:53;;;;;;;;;;;;;;;17.35;48.01;100480.27;101788;1315;62195;-83
2022/11/22 06:26:19;;;;;;;;;;;;;;;17.35;48.04;100479.73;101731;1312;61949;-83
2022/11/22 06:28:44;;;;;;;;;;;;;;;17.35;47.99;100478.43;101884;1309;62189;-83
2022/11/22 06:31:13;;;;;;;;;;;;;;;17.36;47.97;100477.15;101736;1310;60440;-82
2022/11/22 06:33:39;;;;;;;;;;;;;;;17.37;48.07;100473.71;101866;1317;61960;-83
2022/11/22 06:36:05;;;;;;;;;;;;;;;17.39;48.15;100475.21;101830;1310;62064;-83
2022/11/22 06:38:31;;;;;;;;;;;;;;;17.40;48.12;100476.58;101712;1315;62198;-84
2022/11/22 06:41:03;;;;;;;;;;;;;;;17.41;48.13;100482.19;101703;1316;62071;-83
2022/11/22 06:43:29;;;;;;;;;;;;;;;17.42;48.16;100485.48;101725;1317;61880;-84
2022/11/22 06:45:56;;;;;;;;;;;;;;;17.43;48.19;100485.61;101757;1311;62166;-83
2022/11/22 06:48:23;;;;;;;;;;;;;;;17.44;48.36;100492.15;101790;1309;62265;-84
2022/11/22 06:50:49;;;;;;;;;;;;;;;17.43;48.33;100493.25;101698;1310;73659;-84
2022/11/22 06:53:38;;;;;;;;;;;;;;;17.44;48.37;100496.04;101894;1315;62062;-85
2022/11/22 06:56:10;;;;;;;;;;;;;;;17.41;48.26;100495.20;101345;1323;62060;-85
2022/11/22 06:58:35;;;;;;;;;;;;;;;17.35;48.38;100494.80;101356;1322;72535;-85
2022/11/22 07:01:02;;;;;;;;;;;;;;;17.36;48.58;100501.51;101257;1322;62131;-85
2022/11/22 07:03:27;;;;;;;;;;;;;;;17.37;48.66;100503.25;102500;1323;59652;-84
2022/11/22 07:05:53;;;;;;;;;;;;;;;17.36;48.67;100504.39;101344;1322;62242;-82
2022/11/22 07:08:19;;;;;;;;;;;;;;;17.35;48.80;100509.55;101475;1323;62259;-83
2022/11/22 07:10:46;;;;;;;;;;;;;;;17.34;48.82;100508.79;101276;1321;63812;-83
2022/11/22 07:13:12;;;;;;;;;;;;;;;17.33;48.87;100500.49;101037;1318;74222;-84
2022/11/22 07:15:37;;;;;;;;;;;;;;;17.33;48.88;100506.33;101263;1318;61519;-84
2022/11/22 07:18:03;;;;;;;;;;;;;;;17.33;48.74;100505.28;101178;1319;62824;-83
2022/11/22 07:20:30;;;;;;;;;;;;;;;17.32;48.87;100507.27;101175;1315;62117;-83
2022/11/22 07:22:55;;;;;;;;;;;;;;;17.33;48.88;100508.84;101199;1317;62668;-83
2022/11/22 07:25:20;;;;;;;;;;;;;;;17.34;48.95;100507.88;101119;1318;62783;-82
2022/11/22 07:27:46;;;;;;;;;;;;;;;17.35;49.04;100513.86;101225;1315;62141;-83
2022/11/22 07:30:11;;;;;;;;;;;;;;;17.36;49.00;100516.09;101147;1314;62429;-82
2022/11/22 07:32:37;;;;;;;;;;;;;;;17.38;48.92;100517.42;101247;1317;62152;-84
2022/11/22 07:35:04;;;;;;;;;;;;;;;17.38;48.95;100520.23;101598;1309;62002;-82
2022/11/22 07:37:30;;;;;;;;;;;;;;;17.39;48.84;100526.05;101589;1310;62131;-83
2022/11/22 07:39:55;;;;;;;;;;;;;;;17.40;48.90;100530.48;101507;1312;62274;-83
2022/11/22 07:42:21;;;;;;;;;;;;;;;17.41;48.92;100535.34;101620;1317;62078;-84
2022/11/22 07:44:46;;;;;;;;;;;;;;;17.42;48.97;100541.88;101508;1317;72693;-84
2022/11/22 07:47:12;;;;;;;;;;;;;;;17.45;48.95;100543.71;101687;1315;62186;-83
2022/11/22 07:49:38;;;;;;;;;;;;;;;17.46;49.14;100542.38;101583;1310;62086;-86
2022/11/22 07:52:04;;;;;;;;;;;;;;;17.50;49.16;100538.55;101419;1310;60672;-84
2022/11/22 07:54:30;;;;;;;;;;;;;;;17.53;49.02;100542.68;101535;1315;62159;-84
2022/11/22 07:56:55;;;;;;;;;;;;;;;17.49;49.03;100543.81;101613;1315;62266;-84
2022/11/22 07:59:21;;;;;;;;;;;;;;;17.43;48.97;100540.94;101533;1309;62258;-84
2022/11/22 08:01:46;;;;;;;;;;;;;;;17.40;49.02;100540.77;101525;1317;62351;-86
2022/11/22 08:04:12;;;;;;;;;;;;;;;17.37;49.12;100546.50;101475;1309;62105;-84
2022/11/22 08:06:37;;;;;;;;;;;;;;;17.33;49.19;100546.32;101555;1309;62089;-82
2022/11/22 08:09:03;;;;;;;;;;;;;;;17.33;49.22;100538.90;101479;1313;62226;-84
2022/11/22 08:11:30;;;;;;;;;;;;;;;17.31;49.19;100533.16;101636;1317;60851;-84
2022/11/22 08:13:55;;;;;;;;;;;;;;;17.27;49.28;100529.10;101555;1317;62756;-83
2022/11/22 08:16:21;;;;;;;;;;;;;;;17.26;49.29;100531.63;101599;1317;60817;-84
2022/11/22 08:18:47;;;;;;;;;;;;;;;17.29;49.33;100533.97;101448;1317;62199;-83
2022/11/22 08:21:13;;;;;;;;;;;;;;;17.31;49.42;100530.65;101508;1313;62370;-82
2022/11/22 08:23:38;;;;;;;;;;;;;;;17.33;49.50;100529.26;101524;1311;62099;-82
2022/11/22 08:26:04;;;;;;;;;;;;;;;17.36;49.51;100524.67;101658;1309;62275;-81
2022/11/22 08:28:29;;;;;;;;;;;;;;;17.38;49.51;100525.08;101507;1318;62865;-83
2022/11/22 08:30:59;;;;;;;;;;;;;;;17.41;49.64;100523.08;101570;1309;62319;-84
2022/11/22 08:33:25;;;;;;;;;;;;;;;17.44;49.73;100519.02;101513;1316;75088;-81
2022/11/22 08:35:50;;;;;;;;;;;;;;;17.46;49.68;100519.95;101570;1314;62119;-82
2022/11/22 08:38:16;;;;;;;;;;;;;;;17.48;49.87;100518.63;101575;1315;62321;-82
2022/11/22 08:40:42;;;;;;;;;;;;;;;17.49;49.87;100518.88;101565;1317;62127;-83
2022/11/22 08:43:08;;;;;;;;;;;;;;;17.50;49.92;100520.80;101687;1310;60685;-82
2022/11/22 08:45:35;;;;;;;;;;;;;;;17.51;49.95;100522.72;101745;1313;62117;-83
2022/11/22 08:48:02;;;;;;;;;;;;;;;17.51;49.99;100525.69;101756;1315;62014;-84
2022/11/22 08:50:27;;;;;;;;;;;;;;;17.52;49.85;100524.59;101759;1316;62100;-83
2022/11/22 08:52:53;;;;;;;;;;;;;;;17.52;49.95;100527.62;101726;1313;60308;-83
2022/11/22 08:55:19;;;;;;;;;;;;;;;17.52;49.97;100522.25;101692;1314;62147;-83
2022/11/22 08:57:44;;;;;;;;;;;;;;;17.53;49.97;100520.77;101793;1316;62135;-82
2022/11/22 09:00:11;;;;;;;;;;;;;;;17.54;49.98;100523.94;101704;1315;62077;-83
2022/11/22 09:02:36;;;;;;;;;;;;;;;17.53;49.98;100522.73;101393;1320;62610;-83
2022/11/22 09:05:02;;;;;;;;;;;;;;;17.51;49.88;100524.46;101569;1315;62209;-84
2022/11/22 09:07:28;;;;;;;;;;;;;;;17.46;49.84;100530.83;101597;1315;62115;-83
2022/11/22 09:09:54;;;;;;;;;;;;;;;17.44;49.89;100537.13;101516;1315;62293;-83
2022/11/22 09:12:20;;;;;;;;;;;;;;;17.39;49.81;100545.81;101502;1316;62183;-83
2022/11/22 09:14:46;;;;;;;;;;;;;;;17.35;49.94;100544.64;101557;1316;61912;-82
2022/11/22 09:17:11;;;;;;;;;;;;;;;17.34;49.96;100541.85;101589;1317;62182;-83
2022/11/22 09:19:37;;;;;;;;;;;;;;;17.35;49.99;100538.40;101540;1318;62848;-83
2022/11/22 09:22:02;;;;;;;;;;;;;;;17.37;50.01;100530.30;101512;1316;62220;-83
2022/11/22 09:24:28;;;;;;;;;;;;;;;17.38;50.15;100519.73;101601;1315;63415;-83
2022/11/22 09:26:53;;;;;;;;;;;;;;;17.40;50.11;100510.35;101469;1315;62150;-83
2022/11/22 09:29:18;;;;;;;;;;;;;;;17.41;50.13;100510.08;101527;1316;62116;-84
2022/11/22 09:31:44;;;;;;;;;;;;;;;17.44;50.10;100502.13;101532;1315;62644;-85
2022/11/22 09:34:09;;;;;;;;;;;;;;;17.46;50.12;100498.12;101575;1315;62146;-84
2022/11/22 09:36:35;;;;;;;;;;;;;;;17.48;50.08;100499.03;101422;1315;62113;-84
2022/11/22 09:39:01;;;;;;;;;;;;;;;17.49;49.99;100502.86;101560;1307;62125;-83
2022/11/22 09:41:38;;;;;;;;;;;;;;;17.51;50.08;100507.41;101705;1313;62138;-83
2022/11/22 09:44:24;;;;;;;;;;;;;;;17.51;50.06;100502.74;101652;1316;76398;-83
2022/11/22 09:46:52;;;;;;;;;;;;;;;17.52;49.96;100502.14;101746;1315;62018;-85
2022/11/22 09:49:27;;;;;;;;;;;;;;;17.53;50.03;100506.71;101701;1309;62045;-83
2022/11/22 09:52:03;;;;;;;;;;;;;;;17.54;50.07;100505.95;101724;1316;72660;-82
2022/11/22 09:54:35;;;;;;;;;;;;;;;17.56;50.16;100508.33;101673;1310;76433;-82
2022/11/22 09:57:01;;;;;;;;;;;;;;;17.57;50.02;100508.41;101804;1311;62418;-84
2022/11/22 09:59:27;;;;;;;;;;;;;;;17.58;50.12;100507.62;102037;1309;62122;-84
2022/11/22 10:01:56;;;;;;;;;;;;;;;17.58;50.09;100505.89;101674;1313;60599;-85
2022/11/22 10:04:23;;;;;;;;;;;;;;;17.54;49.94;100511.48;101600;1315;74830;-85
2022/11/22 10:06:52;;;;;;;;;;;;;;;17.47;49.82;100508.52;101592;1318;62227;-85
2022/11/22 10:09:38;;;;;;;;;;;;;;;17.39;49.94;100510.44;101546;1316;61470;-85
2022/11/22 10:12:37;;;;;;;;;;;;;;;17.33;50.04;100515.59;101574;1310;72306;-85
2022/11/22 10:15:21;;;;;;;;;;;;;;;17.33;50.23;100513.61;101319;1318;75378;-83
2022/11/22 10:17:58;;;;;;;;;;;;;;;17.34;50.15;100513.91;101465;1317;61975;-83
2022/11/22 10:20:24;;;;;;;;;;;;;;;17.35;50.01;100510.83;102031;1310;62074;-83
2022/11/22 10:22:51;;;;;;;;;;;;;;;17.37;50.06;100502.90;101467;1334;62204;-84
2022/11/22 10:25:16;;;;;;;;;;;;;;;17.38;50.07;100496.94;101554;1317;62032;-85
2022/11/22 10:27:43;;;;;;;;;;;;;;;17.40;49.94;100494.16;101696;1316;62118;-83
2022/11/22 10:30:15;;;;;;;;;;;;;;;17.42;49.91;100492.99;101738;1315;62128;-84
2022/11/22 10:32:42;;;;;;;;;;;;;;;17.45;49.90;100494.08;101636;1317;72529;-84
2022/11/22 10:35:23;;;;;;;;;;;;;;;17.47;50.01;100493.05;101546;1317;76466;-84
2022/11/22 10:37:48;;;;;;;;;;;;;;;17.51;50.02;100486.02;101493;1315;62083;-84
2022/11/22 10:40:29;;;;;;;;;;;;;;;17.55;50.19;100480.27;101542;1310;62187;-84
2022/11/22 10:43:14;;;;;;;;;;;;;;;17.60;50.29;100477.98;101487;1311;71450;-83
2022/11/22 10:45:41;;;;;;;;;;;;;;;17.65;50.28;100478.77;101580;1309;77690;-84
2022/11/22 10:48:19;;;;;;;;;;;;;;;17.68;50.35;100479.50;101589;1318;62005;-83
2022/11/22 10:51:17;;;;;;;;;;;;;;;17.69;50.18;100478.70;101609;1313;62130;-83
2022/11/22 10:53:52;;;;;;;;;;;;;;;17.71;50.23;100469.52;101146;1318;72465;-84
2022/11/22 10:56:23;;;;;;;;;;;;;;;17.70;50.21;100470.62;101050;1327;76114;-83
2022/11/22 10:58:51;;;;;;;;;;;;;;;17.71;50.05;100478.02;101193;1323;62140;-83
2022/11/22 11:01:29;;;;;;;;;;;;;;;17.73;50.12;100476.69;101147;1315;62970;-83
2022/11/22 11:03:57;;;;;;;;;;;;;;;17.71;49.82;100475.38;101151;1323;72576;-83
2022/11/22 11:06:22;;;;;;;;;;;;;;;17.65;49.63;100478.23;101021;1324;76697;-82
2022/11/22 11:09:10;;;;;;;;;;;;;;;17.51;49.47;100482.62;101024;1322;62186;-85
2022/11/22 11:11:36;;;;;;;;;;;;;;;17.45;49.61;100478.41;101082;1318;62122;-84
2022/11/22 11:14:06;;;;;;;;;;;;;;;17.39;49.48;100477.14;101050;1325;62142;-85
2022/11/22 11:16:33;;;;;;;;;;;;;;;17.30;49.60;100474.14;102405;1323;74269;-84
2022/11/22 11:19:01;;;;;;;;;;;;;;;17.27;49.71;100463.46;101183;1323;62240;-85
2022/11/22 11:21:26;;;;;;;;;;;;;;;17.26;49.84;100459.97;101247;1323;62141;-83
2022/11/22 11:23:52;;;;;;;;;;;;;;;17.25;49.87;100458.81;101228;1323;62342;-84
2022/11/22 11:26:20;;;;;;;;;;;;;;;17.24;49.91;100456.69;101098;1323;62270;-85
2022/11/22 11:28:45;;;;;;;;;;;;;;;17.23;49.85;100450.53;101240;1315;61005;-82
2022/11/22 11:31:17;;;;;;;;;;;;;;;17.23;49.80;100450.34;101553;1315;62252;-83
2022/11/22 11:33:42;;;;;;;;;;;;;;;17.25;49.90;100443.30;101432;1316;73637;-83
2022/11/22 11:36:18;;;;;;;;;;;;;;;17.28;49.92;100446.34;101654;1319;62231;-82
2022/11/22 11:38:44;;;;;;;;;;;;;;;17.30;49.80;100445.16;101687;1312;62275;-84
2022/11/22 11:41:17;;;;;;;;;;;;;;;17.31;49.72;100452.52;101634;1315;62074;-82
2022/11/22 11:43:44;;;;;;;;;;;;;;;17.32;49.67;100455.14;101533;1317;73554;-81
2022/11/22 11:46:14;;;;;;;;;;;;;;;17.34;49.66;100455.23;101494;1319;75196;-82
2022/11/22 11:48:42;;;;;;;;;;;;;;;17.35;49.62;100455.15;101574;1318;64708;-84
2022/11/22 11:51:19;;;;;;;;;;;;;;;17.37;49.59;100451.83;101518;1317;62077;-84
2022/11/22 11:54:08;;;;;;;;;;;;;;;17.39;49.58;100443.03;101643;1317;72685;-83
2022/11/22 11:56:43;;;;;;;;;;;;;;;17.40;49.56;100438.28;101679;1316;76457;-83
2022/11/22 11:59:13;;;;;;;;;;;;;;;17.42;49.65;100440.13;101981;1315;63420;-83
2022/11/22 12:01:42;;;;;;;;;;;;;;;17.42;49.70;100444.91;101572;1309;60808;-83
2022/11/22 12:04:12;;;;;;;;;;;;;;;17.37;49.56;100443.10;101421;1313;73722;-83
2022/11/22 12:06:38;;;;;;;;;;;;;;;17.25;49.41;100438.30;101477;1317;76469;-84
2022/11/22 12:09:07;;;;;;;;;;;;;;;17.16;49.36;100437.13;101376;1317;62118;-85
2022/11/22 12:11:54;;;;;;;;;;;;;;;17.13;49.32;100433.73;101421;1317;62074;-86
2022/11/22 12:14:19;;;;;;;;;;;;;;;17.09;49.24;100427.53;102342;1315;73766;-85
2022/11/22 12:16:45;;;;;;;;;;;;;;;17.08;49.29;100429.38;102354;1317;60963;-85
2022/11/22 12:19:23;;;;;;;;;;;;;;;17.08;49.33;100434.33;102334;1328;60818;-84
2022/11/22 12:21:52;;;;;;;;;;;;;;;17.07;49.28;100433.38;102211;1326;60653;-84
2022/11/22 12:24:26;;;;;;;;;;;;;;;17.05;49.35;100436.66;102315;1331;73789;-85
2022/11/22 12:26:52;;;;;;;;;;;;;;;17.05;49.25;100438.48;102123;1317;75584;-84
2022/11/22 12:29:18;;;;;;;;;;;;;;;17.03;49.38;100437.35;102200;1322;62129;-85
2022/11/22 12:31:49;;;;;;;;;;;;;;;16.95;49.03;100432.48;102179;1310;61928;-84
2022/11/22 12:34:39;;;;;;;;;;;;;;;16.81;49.00;100422.79;102159;1317;71526;-84
2022/11/22 12:37:10;;;;;;;;;;;;;;;16.73;49.09;100421.46;102190;1322;75233;-86
2022/11/22 12:39:36;;;;;;;;;;;;;;;16.74;49.09;100413.23;102197;1310;62093;-85